Ballyclare, United Kingdom
Current Conditions -  °F | °C
As of 12:50 AM on Saturday 20 Dec 2014 (Local Time) from EGAA Reporting Station
Broken Clouds Broken Clouds  
Wind Chill: 34°   Ceiling: 2900
Heat Index: 43°   Visibility: 6mi
Dew Point: 39°   Wind: 21mph
Humidity: 87%   Direction: 260°W
Pressure: 30.03"   Gusts: NA
Location:  54.77°N, 6.02°W
Report Text: EGAA 200050Z 26018KT 9999 SCT024 BKN029 BKN038 06/04 Q1017
Loading
Personal Weather Stations






























Interactive Weather Map New forecast layout! Learn more

10-Day Weather Forecast

Advertisements
Track Severe Weather on mobile